Time;durP1;ratioP1;P1;durP2;ratioP2;P2;SDS_P1;SDS_P2;PMS_P1;PMS_P2;Temp;Humidity;BMP_temperature;BMP_pressure;BME280_temperature;BME280_humidity;BME280_pressure;Samples;Min_cycle;Max_cycle;Signal;HPM_P1;HPM_P2
2021/07/17 00:00:27;;;;;;;15.25;9.65;;;;;;;21.40;88.16;99167.61;1739542;82;21438;-70
2021/07/17 00:02:53;;;;;;;14.43;9.53;;;;;;;21.37;88.41;99167.64;1722244;81;20975;-70
2021/07/17 00:05:20;;;;;;;16.10;10.03;;;;;;;21.36;88.58;99166.05;1745867;82;20881;-70
2021/07/17 00:07:47;;;;;;;17.55;9.95;;;;;;;21.34;88.51;99172.62;1720561;82;20907;-70
2021/07/17 00:10:23;;;;;;;14.65;9.53;;;;;;;21.29;88.62;99168.22;1736570;81;20908;-70
2021/07/17 00:12:51;;;;;;;17.25;9.35;;;;;;;21.27;88.63;99169.22;1701766;81;20963;-70
2021/07/17 00:15:21;;;;;;;15.15;9.88;;;;;;;21.24;88.53;99167.81;1721563;81;21951;-70
2021/07/17 00:17:48;;;;;;;16.25;9.55;;;;;;;21.21;88.61;99167.18;1723402;81;21054;-70
2021/07/17 00:20:14;;;;;;;15.98;10.00;;;;;;;21.16;88.65;99171.16;1745113;81;20954;-70
2021/07/17 00:22:41;;;;;;;16.65;9.50;;;;;;;21.13;88.69;99169.75;1725439;81;21503;-70
2021/07/17 00:25:11;;;;;;;18.57;8.33;;;;;;;21.10;89.01;99165.16;1743912;81;20932;-70
2021/07/17 00:27:37;;;;;;;14.30;8.23;;;;;;;21.09;89.26;99162.17;1708954;81;21147;-70
2021/07/17 00:30:06;;;;;;;9.68;8.53;;;;;;;21.06;89.37;99162.96;1747270;82;20931;-70
2021/07/17 00:32:32;;;;;;;12.50;8.28;;;;;;;21.06;89.65;99159.38;1723662;81;20952;-70
2021/07/17 00:34:59;;;;;;;16.12;8.30;;;;;;;21.02;89.66;99157.97;1722328;81;20935;-70
2021/07/17 00:37:25;;;;;;;9.70;7.50;;;;;;;21.00;89.66;99155.37;1735098;81;21026;-70
2021/07/17 00:39:53;;;;;;;16.10;8.70;;;;;;;20.97;89.59;99151.98;1740118;81;20956;-69
2021/07/17 00:42:20;;;;;;;12.30;8.88;;;;;;;20.94;89.59;99153.56;1741251;80;21403;-70
2021/07/17 00:44:48;;;;;;;17.45;8.88;;;;;;;20.93;89.78;99161.73;1711874;83;20868;-70
2021/07/17 00:47:15;;;;;;;15.75;9.25;;;;;;;20.90;90.00;99158.33;1717239;81;21478;-70
2021/07/17 00:49:41;;;;;;;16.82;7.53;;;;;;;20.90;89.81;99168.70;1730614;81;21038;-69
2021/07/17 00:52:07;;;;;;;15.43;8.65;;;;;;;20.86;89.95;99164.50;1734616;81;21506;-70
2021/07/17 00:54:34;;;;;;;17.40;8.65;;;;;;;20.84;90.04;99165.48;1718158;81;21002;-70
2021/07/17 00:57:02;;;;;;;13.35;9.25;;;;;;;20.81;90.13;99160.69;1723574;81;21074;-69
2021/07/17 00:59:30;;;;;;;17.05;9.18;;;;;;;20.80;90.32;99168.09;1737068;82;20979;-69
2021/07/17 01:01:58;;;;;;;19.20;10.93;;;;;;;20.78;90.20;99170.47;1717283;80;20887;-70
2021/07/17 01:04:25;;;;;;;23.50;13.75;;;;;;;20.76;90.36;99172.27;1731949;81;21900;-69
2021/07/17 01:06:51;;;;;;;21.10;13.13;;;;;;;20.75;90.64;99173.45;1721104;81;21041;-69
2021/07/17 01:09:17;;;;;;;28.32;15.25;;;;;;;20.76;90.79;99170.87;1737560;81;21419;-70
2021/07/17 01:11:44;;;;;;;20.43;12.50;;;;;;;20.76;91.20;99167.48;1725817;81;20923;-70
2021/07/17 01:14:11;;;;;;;28.30;12.18;;;;;;;20.79;91.68;99167.30;1718487;82;21410;-69
2021/07/17 01:16:37;;;;;;;18.17;11.53;;;;;;;20.86;92.04;99176.25;1713956;82;23275;-70
2021/07/17 01:19:04;;;;;;;23.00;11.78;;;;;;;20.88;91.15;99179.45;1743185;81;20959;-69
2021/07/17 01:21:30;;;;;;;22.73;11.12;;;;;;;20.86;90.87;99180.44;1718976;81;21046;-70
2021/07/17 01:23:57;;;;;;;18.52;10.70;;;;;;;20.84;90.80;99191.98;1718253;82;20949;-70
2021/07/17 01:26:24;;;;;;;16.10;11.08;;;;;;;20.82;91.14;99187.99;1721471;81;20947;-70
2021/07/17 01:28:50;;;;;;;24.55;11.57;;;;;;;20.82;91.72;99183.81;1725367;81;21875;-70
2021/07/17 01:31:18;;;;;;;19.77;10.48;;;;;;;20.87;92.20;99188.41;1721662;82;21379;-70
2021/07/17 01:33:46;;;;;;;19.40;10.10;;;;;;;20.92;91.52;99183.84;1700025;81;20977;-70
2021/07/17 01:36:13;;;;;;;16.40;10.40;;;;;;;20.87;90.85;99178.65;1751333;81;20959;-70
2021/07/17 01:38:41;;;;;;;23.18;10.35;;;;;;;20.82;90.89;99174.05;1714914;81;20914;-70
2021/07/17 01:41:09;;;;;;;20.20;10.70;;;;;;;20.75;90.71;99175.64;1735436;81;21058;-70
2021/07/17 01:43:36;;;;;;;20.35;11.08;;;;;;;20.67;90.78;99176.01;1718920;81;20986;-69
2021/07/17 01:46:03;;;;;;;17.40;10.13;;;;;;;20.59;90.99;99171.59;1721794;81;21489;-70
2021/07/17 01:48:29;;;;;;;14.28;10.18;;;;;;;20.55;91.36;99172.17;1718754;81;20987;-69
2021/07/17 01:50:57;;;;;;;19.23;10.75;;;;;;;20.52;91.47;99171.55;1736815;81;20847;-69
2021/07/17 01:53:24;;;;;;;25.15;11.50;;;;;;;20.49;91.48;99169.55;1750336;81;21147;-70
2021/07/17 01:55:50;;;;;;;15.35;10.18;;;;;;;20.43;91.47;99159.36;1738548;81;20951;-69
2021/07/17 01:58:16;;;;;;;22.85;10.28;;;;;;;20.39;91.90;99162.14;1730177;81;20991;-70
2021/07/17 02:00:43;;;;;;;16.65;9.70;;;;;;;20.38;91.93;99161.13;1725028;81;20939;-69
2021/07/17 02:03:11;;;;;;;18.42;10.20;;;;;;;20.36;91.96;99164.88;1717803;81;21054;-69
2021/07/17 02:05:38;;;;;;;16.20;10.55;;;;;;;20.32;91.98;99163.46;1715223;82;21611;-69
2021/07/17 02:08:05;;;;;;;23.15;12.35;;;;;;;20.29;92.28;99161.45;1714373;81;20920;-70
2021/07/17 02:10:34;;;;;;;16.55;10.13;;;;;;;20.27;92.60;99158.84;1736046;81;21466;-69
2021/07/17 02:13:06;;;;;;;16.60;10.10;;;;;;;20.24;92.64;99157.64;1728088;81;20884;-69
2021/07/17 02:15:52;;;;;;;11.68;9.65;;;;;;;20.20;92.95;99160.23;1719606;82;20844;-70
2021/07/17 02:18:26;;;;;;;18.35;11.97;;;;;;;20.17;93.10;99154.05;1735123;81;21173;-69
2021/07/17 02:20:53;;;;;;;14.30;9.60;;;;;;;20.16;93.20;99149.06;1732096;81;20907;-69
2021/07/17 02:23:19;;;;;;;14.13;10.40;;;;;;;20.15;93.05;99154.43;1735885;81;20899;-69
2021/07/17 02:25:46;;;;;;;23.98;11.10;;;;;;;20.14;93.15;99154.23;1750912;81;20903;-69
2021/07/17 02:28:13;;;;;;;15.08;10.70;;;;;;;20.14;93.26;99157.02;1745585;81;21047;-69
2021/07/17 02:30:41;;;;;;;16.55;10.38;;;;;;;20.15;93.85;99153.04;1725266;81;21205;-69
2021/07/17 02:33:08;;;;;;;20.15;10.50;;;;;;;20.19;93.91;99148.28;1716082;82;20927;-70
2021/07/17 02:35:34;;;;;;;18.75;10.82;;;;;;;20.17;93.72;99158.22;1722168;81;20963;-70
2021/07/17 02:38:01;;;;;;;19.12;11.60;;;;;;;20.17;94.08;99154.84;1733612;81;20927;-69
2021/07/17 02:40:28;;;;;;;22.60;11.73;;;;;;;20.20;94.24;99154.66;1745711;80;20908;-70
2021/07/17 02:42:56;;;;;;;23.52;11.63;;;;;;;20.22;94.34;99148.87;1732954;81;20947;-70
2021/07/17 02:45:23;;;;;;;15.78;10.08;;;;;;;20.25;94.52;99155.66;1720470;81;20915;-69
2021/07/17 02:47:49;;;;;;;15.95;11.15;;;;;;;20.27;94.72;99157.45;1720775;82;21455;-69
2021/07/17 02:50:16;;;;;;;20.52;12.03;;;;;;;20.27;94.54;99154.67;1717295;81;20879;-70
2021/07/17 02:52:42;;;;;;;19.20;12.13;;;;;;;20.28;94.83;99155.67;1735476;81;21013;-69
2021/07/17 02:55:10;;;;;;;15.63;10.80;;;;;;;20.30;95.07;99156.08;1727355;81;21801;-69
2021/07/17 02:57:36;;;;;;;16.17;9.60;;;;;;;20.34;95.37;99155.51;1721091;81;20974;-69
2021/07/17 03:00:07;;;;;;;12.65;9.83;;;;;;;20.38;95.57;99160.53;1721739;81;20970;-69
2021/07/17 03:02:33;;;;;;;16.35;10.65;;;;;;;20.44;95.63;99163.75;1722416;81;21072;-69
2021/07/17 03:05:01;;;;;;;16.65;11.85;;;;;;;20.48;95.67;99158.19;1724821;81;20978;-69
2021/07/17 03:07:27;;;;;;;17.95;11.63;;;;;;;20.54;95.77;99160.81;1728204;81;21066;-69
2021/07/17 03:09:54;;;;;;;21.93;11.80;;;;;;;20.59;96.02;99151.48;1725515;82;21667;-69
2021/07/17 03:12:20;;;;;;;18.67;11.88;;;;;;;20.68;96.12;99152.51;1725830;81;20892;-70
2021/07/17 03:14:47;;;;;;;35.05;12.65;;;;;;;20.77;96.29;99150.15;1733068;80;20894;-70
2021/07/17 03:17:13;;;;;;;59.03;13.43;;;;;;;20.84;95.90;99156.31;1716291;82;21050;-70
2021/07/17 03:19:40;;;;;;;31.00;12.88;;;;;;;20.88;95.74;99150.16;1732313;81;21435;-70
2021/07/17 03:22:08;;;;;;;25.90;12.78;;;;;;;20.95;96.00;99144.00;1721997;80;20915;-70
2021/07/17 03:24:34;;;;;;;32.38;14.18;;;;;;;21.05;96.39;99145.22;1743441;81;20986;-70
2021/07/17 03:27:00;;;;;;;18.25;12.47;;;;;;;21.15;96.53;99140.85;1732887;81;21006;-70
2021/07/17 03:29:27;;;;;;;23.50;12.10;;;;;;;21.23;96.66;99145.28;1725915;81;21024;-69
2021/07/17 03:31:54;;;;;;;39.05;13.78;;;;;;;21.33;96.94;99145.89;1707146;81;21104;-70
2021/07/17 03:34:20;;;;;;;25.65;13.93;;;;;;;21.43;97.08;99147.87;1721164;81;21686;-70
2021/07/17 03:36:46;;;;;;;27.87;14.00;;;;;;;21.55;97.11;99144.69;1729849;81;21454;-69
2021/07/17 03:39:13;;;;;;;27.80;13.83;;;;;;;21.66;97.07;99149.67;1714313;81;20974;-70
2021/07/17 03:41:40;;;;;;;22.25;12.60;;;;;;;21.76;97.24;99145.28;1716297;82;20971;-70
2021/07/17 03:44:10;;;;;;;21.93;12.75;;;;;;;21.86;97.51;99144.47;1747626;81;21747;-70
2021/07/17 03:46:37;;;;;;;24.47;13.08;;;;;;;21.98;97.57;99137.64;1728746;81;20902;-70
2021/07/17 03:49:03;;;;;;;20.37;12.25;;;;;;;22.12;97.48;99141.05;1718021;82;21585;-70
2021/07/17 03:51:31;;;;;;;17.23;11.95;;;;;;;22.23;97.38;99139.81;1725146;81;20927;-69
2021/07/17 03:53:58;;;;;;;15.23;11.60;;;;;;;22.37;97.10;99135.58;1721958;81;21051;-69
2021/07/17 03:56:24;;;;;;;22.32;13.55;;;;;;;22.52;96.65;99137.72;1706390;81;21159;-69
2021/07/17 03:58:50;;;;;;;26.15;14.28;;;;;;;22.67;96.16;99144.03;1719762;81;20922;-69
2021/07/17 04:01:17;;;;;;;30.08;16.17;;;;;;;22.80;95.94;99145.20;1714824;81;21408;-69
2021/07/17 04:03:46;;;;;;;25.43;15.80;;;;;;;22.91;94.91;99152.94;1713429;82;21047;-69
2021/07/17 04:06:12;;;;;;;24.20;15.20;;;;;;;23.04;94.64;99152.67;1718724;82;21031;-69
2021/07/17 04:08:40;;;;;;;23.95;14.58;;;;;;;23.16;93.89;99155.56;1729603;81;20907;-70
2021/07/17 04:11:06;;;;;;;17.73;13.38;;;;;;;23.30;93.65;99156.88;1722965;81;20955;-69
2021/07/17 04:13:33;;;;;;;23.42;14.25;;;;;;;23.43;93.55;99161.99;1738159;81;21043;-70
2021/07/17 04:16:00;;;;;;;20.20;13.50;;;;;;;23.52;93.23;99154.72;1716223;82;20931;-70
2021/07/17 04:18:28;;;;;;;35.45;15.35;;;;;;;23.61;93.17;99170.48;1714195;82;21034;-70
2021/07/17 04:20:55;;;;;;;21.25;14.05;;;;;;;23.71;92.77;99165.38;1719080;81;21079;-70
2021/07/17 04:23:22;;;;;;;23.70;13.70;;;;;;;23.82;92.20;99170.09;1724133;81;20974;-70
2021/07/17 04:25:50;;;;;;;22.82;13.68;;;;;;;23.94;91.84;99171.78;1726524;81;21499;-69
2021/07/17 04:28:17;;;;;;;22.27;15.38;;;;;;;24.02;90.46;99167.70;1721245;81;21007;-69
2021/07/17 04:30:43;;;;;;;21.33;14.03;;;;;;;24.13;90.40;99171.01;1724466;81;21476;-70
2021/07/17 04:33:10;;;;;;;23.30;13.95;;;;;;;24.25;89.71;99171.31;1732370;81;21056;-70
2021/07/17 04:35:38;;;;;;;22.22;13.10;;;;;;;24.39;89.14;99168.13;1736183;81;20923;-70
2021/07/17 04:38:05;;;;;;;22.73;13.93;;;;;;;24.52;87.80;99164.98;1716831;82;21002;-70
2021/07/17 04:40:31;;;;;;;22.90;12.35;;;;;;;24.63;87.36;99162.84;1724604;81;21050;-69
2021/07/17 04:42:58;;;;;;;16.87;12.25;;;;;;;24.72;85.96;99161.73;1740704;81;21396;-70
2021/07/17 04:45:25;;;;;;;14.80;12.05;;;;;;;24.82;84.76;99158.59;1730913;81;21133;-70
2021/07/17 04:47:52;;;;;;;21.35;11.80;;;;;;;24.88;83.37;99160.48;1723078;81;20986;-69
2021/07/17 04:50:18;;;;;;;19.77;11.53;;;;;;;24.92;81.41;99159.83;1727728;81;21441;-69
2021/07/17 04:52:44;;;;;;;18.42;12.07;;;;;;;24.98;81.43;99161.59;1746730;81;20955;-70
2021/07/17 04:55:11;;;;;;;16.05;11.08;;;;;;;25.08;81.63;99159.86;1722765;81;20883;-69
2021/07/17 04:57:40;;;;;;;21.17;10.72;;;;;;;25.17;80.70;99166.55;1716835;82;21469;-69
2021/07/17 05:00:07;;;;;;;12.68;10.10;;;;;;;25.26;80.47;99167.42;1715549;82;21156;-69
2021/07/17 05:02:47;;;;;;;23.07;10.00;;;;;;;25.34;79.27;99171.11;1737085;81;20955;-69
2021/07/17 05:05:18;;;;;;;30.00;10.05;;;;;;;25.40;76.44;99168.62;1741696;81;20996;-69
2021/07/17 05:07:46;;;;;;;12.28;9.45;;;;;;;25.45;76.24;99172.33;1744531;81;20967;-70
2021/07/17 05:10:15;;;;;;;14.03;9.68;;;;;;;25.50;75.93;99169.03;1726232;81;20888;-69
2021/07/17 05:12:42;;;;;;;13.00;9.25;;;;;;;25.59;76.85;99173.50;1733979;81;21014;-69
2021/07/17 05:15:13;;;;;;;15.48;9.33;;;;;;;25.66;75.87;99170.61;1733318;81;20951;-69
2021/07/17 05:17:39;;;;;;;16.02;9.38;;;;;;;25.73;75.29;99175.94;1736001;81;20960;-69
2021/07/17 05:20:07;;;;;;;16.55;9.53;;;;;;;25.78;74.28;99182.48;1725152;81;20938;-69
2021/07/17 05:22:35;;;;;;;12.68;10.15;;;;;;;25.83;74.63;99180.59;1748107;81;21140;-70
2021/07/17 05:25:03;;;;;;;14.47;8.85;;;;;;;25.92;75.03;99178.02;1733590;81;20982;-69
2021/07/17 05:27:29;;;;;;;11.43;8.50;;;;;;;26.04;75.38;99184.41;1713313;82;20948;-70
2021/07/17 05:29:55;;;;;;;12.20;8.35;;;;;;;26.13;73.82;99178.23;1737472;81;21037;-70
2021/07/17 05:32:22;;;;;;;15.20;8.30;;;;;;;26.20;73.41;99181.70;1740606;81;21469;-70
2021/07/17 05:34:48;;;;;;;9.88;8.70;;;;;;;26.28;73.53;99181.77;1703852;82;21037;-69
2021/07/17 05:37:14;;;;;;;14.73;9.35;;;;;;;26.39;73.35;99174.55;1721686;81;20909;-69
2021/07/17 05:39:41;;;;;;;12.37;8.70;;;;;;;26.52;72.10;99178.31;1735783;81;20927;-70
2021/07/17 05:42:07;;;;;;;17.27;10.63;;;;;;;26.60;70.06;99174.11;1712260;82;21414;-70
2021/07/17 05:44:34;;;;;;;13.20;10.35;;;;;;;26.65;70.61;99176.42;1716821;82;20959;-70
2021/07/17 05:47:00;;;;;;;16.30;8.65;;;;;;;26.71;70.18;99178.12;1734426;81;21781;-70
2021/07/17 05:49:27;;;;;;;14.07;9.55;;;;;;;26.74;69.09;99173.64;1731022;81;20837;-70
2021/07/17 05:51:53;;;;;;;12.90;8.93;;;;;;;26.81;70.16;99178.51;1733218;81;20923;-70
2021/07/17 05:54:19;;;;;;;13.85;9.20;;;;;;;26.92;70.11;99180.48;1737994;81;21407;-70
2021/07/17 05:56:46;;;;;;;12.20;8.65;;;;;;;27.03;70.05;99176.06;1716987;82;21042;-69
2021/07/17 05:59:12;;;;;;;11.18;8.20;;;;;;;27.14;69.00;99167.38;1714693;82;21482;-69
2021/07/17 06:01:39;;;;;;;9.20;8.15;;;;;;;27.25;67.43;99174.94;1716307;81;20947;-70
2021/07/17 06:04:08;;;;;;;9.83;7.90;;;;;;;27.32;65.59;99175.40;1725803;82;21013;-69
2021/07/17 06:06:35;;;;;;;12.75;7.72;;;;;;;27.36;65.89;99176.91;1716532;82;20966;-70
2021/07/17 06:09:02;;;;;;;12.10;8.70;;;;;;;27.42;66.20;99176.56;1729667;81;20927;-70
2021/07/17 06:11:29;;;;;;;12.80;9.03;;;;;;;27.50;66.35;99177.98;1744324;81;21516;-69
2021/07/17 06:13:56;;;;;;;12.33;8.50;;;;;;;27.59;66.54;99181.63;1742540;81;21518;-70
2021/07/17 06:16:23;;;;;;;12.28;7.65;;;;;;;27.70;66.90;99181.38;1717823;82;21462;-69
2021/07/17 06:18:50;;;;;;;12.58;8.10;;;;;;;27.84;65.27;99183.81;1725746;81;20868;-69
2021/07/17 06:21:17;;;;;;;12.05;8.15;;;;;;;27.94;64.32;99184.95;1719809;81;21006;-70
2021/07/17 06:23:43;;;;;;;8.50;7.53;;;;;;;28.07;63.75;99191.30;1722408;82;21139;-69
2021/07/17 06:26:10;;;;;;;11.97;7.87;;;;;;;28.20;63.03;99191.55;1723683;81;20928;-70
2021/07/17 06:28:37;;;;;;;9.35;7.15;;;;;;;28.32;61.06;99193.46;1737921;80;21026;-69
2021/07/17 06:31:04;;;;;;;9.33;7.30;;;;;;;28.38;61.57;99193.09;1716441;82;21018;-69
2021/07/17 06:33:30;;;;;;;9.50;7.78;;;;;;;28.45;60.46;99183.02;1728903;81;20922;-69
2021/07/17 06:35:56;;;;;;;15.13;8.10;;;;;;;28.54;59.43;99181.77;1724120;81;21732;-69
2021/07/17 06:38:23;;;;;;;13.83;7.97;;;;;;;28.61;60.14;99182.97;1724206;81;20974;-69
2021/07/17 06:40:49;;;;;;;21.07;7.87;;;;;;;28.70;58.53;99178.87;1729172;81;20946;-70
2021/07/17 06:43:15;;;;;;;9.85;7.58;;;;;;;28.81;58.92;99172.30;1731895;81;20991;-69
2021/07/17 06:45:42;;;;;;;12.78;7.75;;;;;;;28.95;59.91;99175.95;1716929;82;21022;-70
2021/07/17 06:48:09;;;;;;;12.18;8.13;;;;;;;29.06;59.09;99172.98;1747265;81;21717;-69
2021/07/17 06:50:36;;;;;;;9.85;7.40;;;;;;;29.17;57.70;99174.86;1732236;81;20965;-69
2021/07/17 06:53:02;;;;;;;8.05;7.17;;;;;;;29.17;56.60;99174.86;1739295;81;21037;-69
2021/07/17 06:55:32;;;;;;;12.20;7.83;;;;;;;29.14;56.21;99170.11;1736389;81;21442;-70
2021/07/17 06:57:58;;;;;;;8.83;7.35;;;;;;;29.15;56.89;99177.34;1746995;81;20923;-69
2021/07/17 07:00:24;;;;;;;11.08;7.28;;;;;;;29.21;56.99;99174.12;1743381;81;21510;-70
2021/07/17 07:02:51;;;;;;;7.50;6.70;;;;;;;29.28;57.75;99170.91;1715724;81;20923;-70
2021/07/17 07:05:17;;;;;;;8.13;7.08;;;;;;;29.35;56.76;99174.30;1724700;81;20878;-69
2021/07/17 07:07:44;;;;;;;13.30;7.35;;;;;;;29.40;55.35;99182.22;1741770;81;20996;-70
2021/07/17 07:10:11;;;;;;;10.63;7.53;;;;;;;29.45;57.55;99177.45;1736564;81;20904;-70
2021/07/17 07:12:38;;;;;;;14.10;7.33;;;;;;;29.54;56.64;99176.73;1729636;81;22217;-70
2021/07/17 07:15:08;;;;;;;14.73;7.55;;;;;;;29.66;54.59;99176.56;1731141;81;21142;-70
2021/07/17 07:17:35;;;;;;;7.45;6.67;;;;;;;29.72;54.72;99175.54;1717926;82;21030;-70
2021/07/17 07:20:03;;;;;;;8.28;7.20;;;;;;;29.83;53.59;99175.19;1716554;82;20942;-69
2021/07/17 07:22:30;;;;;;;9.10;6.62;;;;;;;29.93;52.50;99179.70;1741989;81;21228;-70
2021/07/17 07:24:58;;;;;;;8.00;7.20;;;;;;;30.01;51.76;99179.66;1727357;80;22013;-70
2021/07/17 07:27:24;;;;;;;11.65;6.70;;;;;;;30.07;51.27;99177.80;1734853;80;20879;-70
2021/07/17 07:29:52;;;;;;;10.72;7.12;;;;;;;30.17;50.08;99179.47;1723907;81;20934;-70
2021/07/17 07:32:18;;;;;;;10.53;7.62;;;;;;;30.28;49.34;99181.13;1732541;80;21493;-70
2021/07/17 07:34:45;;;;;;;10.88;7.80;;;;;;;30.34;48.96;99177.27;1709611;81;21017;-70
2021/07/17 07:37:11;;;;;;;9.35;7.28;;;;;;;30.42;49.16;99179.21;1732363;81;21495;-70
2021/07/17 07:39:38;;;;;;;11.25;7.85;;;;;;;30.44;48.54;99184.58;1723897;81;21541;-70
2021/07/17 07:42:04;;;;;;;15.28;7.75;;;;;;;30.38;48.38;99182.80;1741549;81;20892;-70
2021/07/17 07:44:31;;;;;;;11.55;8.25;;;;;;;30.43;48.42;99182.21;1729158;81;20930;-70
2021/07/17 07:46:58;;;;;;;11.38;8.10;;;;;;;30.54;48.41;99184.83;1742057;81;20980;-70
2021/07/17 07:49:24;;;;;;;10.10;8.60;;;;;;;30.64;48.74;99177.19;1733569;80;21161;-70
2021/07/17 07:51:51;;;;;;;12.53;7.72;;;;;;;30.71;48.21;99172.67;1719529;81;21026;-70
2021/07/17 07:54:17;;;;;;;14.70;8.75;;;;;;;30.84;49.69;99174.02;1725267;81;20872;-70
2021/07/17 07:56:44;;;;;;;10.15;7.95;;;;;;;31.02;49.87;99165.64;1731262;81;20930;-70
2021/07/17 07:59:11;;;;;;;11.97;7.80;;;;;;;31.12;46.71;99172.15;1715124;81;20935;-70
2021/07/17 08:01:38;;;;;;;10.90;7.67;;;;;;;31.13;47.77;99168.88;1727595;81;21164;-70
2021/07/17 08:04:04;;;;;;;10.75;8.40;;;;;;;31.27;47.95;99169.55;1732100;81;21485;-70
2021/07/17 08:06:31;;;;;;;13.32;8.55;;;;;;;31.39;47.74;99169.45;1724791;81;20975;-70
2021/07/17 08:08:58;;;;;;;10.98;7.65;;;;;;;31.53;48.60;99171.71;1725440;81;21098;-70
2021/07/17 08:11:25;;;;;;;8.55;7.62;;;;;;;31.74;48.16;99175.75;1724797;81;20938;-70
2021/07/17 08:13:52;;;;;;;10.75;8.28;;;;;;;31.85;46.27;99175.28;1725714;81;21607;-70
2021/07/17 08:16:18;;;;;;;18.55;8.55;;;;;;;31.87;46.59;99167.72;1717675;81;20907;-70
2021/07/17 08:18:44;;;;;;;8.30;7.37;;;;;;;31.93;47.69;99169.47;1731016;81;20903;-70
2021/07/17 08:21:11;;;;;;;10.68;7.45;;;;;;;32.10;47.58;99175.02;1715947;82;21019;-70
2021/07/17 08:23:38;;;;;;;14.05;8.13;;;;;;;32.29;45.19;99171.59;1715993;82;20944;-70
2021/07/17 08:26:04;;;;;;;10.32;8.18;;;;;;;32.48;45.95;99173.78;1717939;81;22333;-70
2021/07/17 08:28:30;;;;;;;15.10;8.20;;;;;;;32.83;44.59;99171.41;1730736;81;20883;-70
2021/07/17 08:30:57;;;;;;;11.00;8.13;;;;;;;33.12;42.49;99168.00;1725653;81;20963;-70
2021/07/17 08:33:23;;;;;;;17.77;7.97;;;;;;;33.30;44.24;99167.19;1727704;81;21518;-70
2021/07/17 08:35:49;;;;;;;12.28;8.25;;;;;;;33.51;43.40;99163.94;1716317;81;21105;-70
2021/07/17 08:38:15;;;;;;;12.75;7.92;;;;;;;33.68;42.92;99170.78;1714235;82;21119;-70
2021/07/17 08:40:52;;;;;;;17.75;8.75;;;;;;;33.77;40.99;99165.83;1717792;81;21402;-70
2021/07/17 08:43:18;;;;;;;9.48;8.50;;;;;;;33.94;41.79;99159.75;1711288;82;20978;-70
2021/07/17 08:45:44;;;;;;;15.95;7.50;;;;;;;34.21;41.76;99158.73;1743779;81;21566;-70
2021/07/17 08:48:11;;;;;;;16.37;7.87;;;;;;;34.35;39.74;99155.97;1721611;81;20991;-70
2021/07/17 08:50:38;;;;;;;8.53;7.42;;;;;;;34.48;41.09;99157.13;1717137;82;21117;-70
2021/07/17 08:53:04;;;;;;;10.82;7.78;;;;;;;34.48;38.87;99163.46;1718029;82;20983;-70
2021/07/17 08:55:31;;;;;;;8.85;7.20;;;;;;;34.32;39.98;99163.28;1713652;81;21490;-70
2021/07/17 08:57:57;;;;;;;11.28;7.95;;;;;;;34.25;39.62;99162.19;1715060;82;20880;-70
2021/07/17 09:00:33;;;;;;;10.65;9.33;;;;;;;34.10;40.33;99170.05;1723335;82;21066;-70
2021/07/17 09:03:03;;;;;;;11.55;8.75;;;;;;;34.02;40.35;99160.96;1723888;81;21379;-70
2021/07/17 09:05:33;;;;;;;9.63;8.15;;;;;;;33.90;40.54;99164.20;1726765;81;20975;-70
2021/07/17 09:07:59;;;;;;;8.83;7.92;;;;;;;33.78;42.08;99166.61;1728657;81;21659;-70
2021/07/17 09:10:31;;;;;;;10.25;8.05;;;;;;;33.59;42.20;99165.92;1728709;81;21002;-70
2021/07/17 09:13:15;;;;;;;12.90;8.25;;;;;;;33.36;41.84;99171.74;1729983;81;21458;-70
2021/07/17 09:15:56;;;;;;;10.75;7.83;;;;;;;33.26;42.79;99172.22;1727741;81;21003;-70
2021/07/17 09:18:31;;;;;;;17.57;8.08;;;;;;;33.41;44.27;99161.13;1720502;81;20960;-70
2021/07/17 09:21:29;;;;;;;12.15;7.83;;;;;;;33.82;42.62;99159.34;1719937;81;20983;-70
2021/07/17 09:24:04;;;;;;;10.93;8.08;;;;;;;33.94;41.92;99156.27;1735780;81;21042;-70
2021/07/17 09:26:33;;;;;;;30.17;9.25;;;;;;;33.81;42.39;99164.25;1733264;81;20880;-70
2021/07/17 09:29:09;;;;;;;13.45;8.28;;;;;;;33.56;43.58;99163.25;1729076;81;21109;-70
2021/07/17 09:31:55;;;;;;;16.00;8.75;;;;;;;33.36;43.49;99164.63;1718642;81;21576;-70
2021/07/17 09:34:24;;;;;;;10.30;8.35;;;;;;;33.48;44.79;99162.05;1728023;81;21490;-70
2021/07/17 09:36:59;;;;;;;12.88;8.75;;;;;;;33.87;42.42;99159.47;1717791;81;20919;-70
2021/07/17 09:39:32;;;;;;;10.80;7.78;;;;;;;34.40;43.06;99153.87;1717860;81;21505;-70
2021/07/17 09:42:05;;;;;;;9.28;7.95;;;;;;;34.93;40.77;99155.11;1738331;80;21064;-70
2021/07/17 09:44:34;;;;;;;11.83;8.25;;;;;;;35.31;38.32;99147.86;1717154;82;20879;-70
2021/07/17 09:47:03;;;;;;;9.73;8.28;;;;;;;35.54;39.13;99141.07;1718761;81;20896;-70
2021/07/17 09:49:30;;;;;;;23.05;8.18;;;;;;;35.84;40.88;99149.69;1736328;81;20872;-70
2021/07/17 09:52:20;;;;;;;9.38;8.45;;;;;;;35.91;38.62;99150.69;1724614;81;20935;-70
2021/07/17 09:55:06;;;;;;;9.45;8.48;;;;;;;35.76;39.00;99140.61;1730603;81;21182;-70
2021/07/17 09:57:33;;;;;;;13.35;9.00;;;;;;;35.35;39.57;99151.94;1720636;81;21727;-70
2021/07/17 10:00:09;;;;;;;11.12;8.60;;;;;;;34.89;40.05;99144.54;1739683;80;20986;-70
2021/07/17 10:02:41;;;;;;;12.43;7.97;;;;;;;34.51;40.84;99143.33;1732876;81;21026;-70
2021/07/17 10:05:10;;;;;;;11.18;8.50;;;;;;;34.12;41.42;99151.84;1717346;81;20987;-70
2021/07/17 10:07:37;;;;;;;14.90;8.80;;;;;;;33.63;43.50;99138.71;1708530;81;21139;-69
2021/07/17 10:10:05;;;;;;;8.80;7.95;;;;;;;33.38;43.70;99142.18;1715286;82;21477;-69
2021/07/17 10:12:40;;;;;;;9.38;8.38;;;;;;;33.52;42.93;99143.51;1716688;82;20884;-70
2021/07/17 10:15:15;;;;;;;15.93;9.13;;;;;;;33.95;41.41;99127.94;1725397;81;20939;-69
2021/07/17 10:17:43;;;;;;;10.75;8.18;;;;;;;34.46;39.77;99131.81;1718309;81;21431;-70
2021/07/17 10:20:15;;;;;;;15.60;8.45;;;;;;;34.91;38.94;99134.86;1733611;81;21960;-70
2021/07/17 10:22:42;;;;;;;;;;;;;;;35.33;38.92;99131.03;1727125;81;21051;-70
2021/07/17 10:25:11;;;;;;;10.10;8.33;;;;;;;35.73;37.07;99122.41;1734866;81;20090;-70
2021/07/17 10:27:38;;;;;;;15.50;8.78;;;;;;;35.90;37.27;99119.14;1734162;81;21498;-70
2021/07/17 10:30:19;;;;;;;10.58;7.87;;;;;;;36.11;35.51;99114.20;1718287;82;20938;-70
2021/07/17 10:32:46;;;;;;;7.97;7.17;;;;;;;36.31;35.04;99114.86;1730607;81;21097;-70
2021/07/17 10:35:12;;;;;;;10.45;7.20;;;;;;;36.47;35.84;99112.80;1691680;82;20950;-70
2021/07/17 10:37:40;;;;;;;8.48;7.58;;;;;;;36.75;36.02;99113.12;1744365;81;20927;-70
2021/07/17 10:40:10;;;;;;;8.35;7.53;;;;;;;37.04;35.75;99111.41;1724324;81;20896;-70
2021/07/17 10:42:37;;;;;;;8.63;7.40;;;;;;;37.31;33.57;99106.44;1726030;81;21011;-70
2021/07/17 10:45:06;;;;;;;9.35;7.12;;;;;;;37.27;33.76;99105.24;1733215;81;21148;-70
2021/07/17 10:47:40;;;;;;;9.38;7.67;;;;;;;37.21;34.03;99100.77;1726338;81;21498;-70
2021/07/17 10:50:10;;;;;;;9.38;7.28;;;;;;;37.24;34.02;99100.53;1717347;82;21546;-70
2021/07/17 10:52:43;;;;;;;;;;;;;;;37.28;33.85;99095.36;1708515;81;20929;-70
2021/07/17 10:55:29;;;;;;;9.50;6.78;;;;;;;37.34;33.17;99083.30;1728970;81;20104;-70
2021/07/17 10:58:00;;;;;;;9.30;6.55;;;;;;;37.22;34.97;99085.17;1746148;81;21566;-70
2021/07/17 11:00:52;;;;;;;12.30;6.85;;;;;;;37.37;33.67;99080.06;1735882;81;21463;-70
2021/07/17 11:03:28;;;;;;;10.82;6.87;;;;;;;37.57;34.28;99075.61;1699514;83;21485;-70
2021/07/17 11:05:53;;;;;;;8.40;7.12;;;;;;;37.49;33.95;99068.04;1716261;82;21513;-70
2021/07/17 11:08:38;;;;;;;7.78;6.97;;;;;;;37.29;34.31;99065.45;1693211;82;20977;-70
2021/07/17 11:11:34;;;;;;;10.53;7.90;;;;;;;37.18;34.17;99068.84;1725604;81;21086;-70
2021/07/17 11:14:16;;;;;;;10.70;7.60;;;;;;;37.26;33.75;99067.90;1723431;82;20946;-71
2021/07/17 11:16:51;;;;;;;8.33;7.42;;;;;;;37.44;32.55;99058.13;1719699;82;32565;-70
2021/07/17 11:19:29;;;;;;;11.85;7.35;;;;;;;37.60;33.20;99049.46;1718501;81;20951;-70
2021/07/17 11:21:58;;;;;;;7.80;6.97;;;;;;;37.81;33.10;99042.95;1713586;82;21113;-70
2021/07/17 11:24:25;;;;;;;11.03;6.97;;;;;;;37.96;33.82;99044.31;1715451;81;21049;-70
2021/07/17 11:27:13;;;;;;;7.42;6.65;;;;;;;38.13;33.34;99042.18;1734774;81;20959;-70
2021/07/17 11:29:48;;;;;;;11.33;7.67;;;;;;;38.13;32.77;99034.33;1714328;82;21019;-70